Time;durP1;ratioP1;P1;durP2;ratioP2;P2;SDS_P1;SDS_P2;PMS_P1;PMS_P2;Temp;Humidity;BMP_temperature;BMP_pressure;BME280_temperature;BME280_humidity;BME280_pressure;Samples;Min_cycle;Max_cycle;Signal;HPM_P1;HPM_P2
2023/11/19 00:00:26;;;;;;;7.63;4.00;;;14.30;99.90;;;;;;4991973;28;20186;-92
2023/11/19 00:02:52;;;;;;;10.30;4.10;;;14.30;99.90;;;;;;4990234;28;20210;-92
2023/11/19 00:05:19;;;;;;;6.47;4.10;;;14.30;99.90;;;;;;4983469;28;20192;-92
2023/11/19 00:07:45;;;;;;;7.83;4.03;;;14.30;99.90;;;;;;4981754;28;20211;-91
2023/11/19 00:10:12;;;;;;;8.33;4.00;;;14.40;99.90;;;;;;4978228;28;20355;-91
2023/11/19 00:12:44;;;;;;;8.57;3.90;;;14.30;99.90;;;;;;4978685;28;20185;-92
2023/11/19 00:15:11;;;;;;;7.37;3.50;;;14.30;99.90;;;;;;4979711;28;20203;-91
2023/11/19 00:17:44;;;;;;;9.80;4.37;;;14.40;99.90;;;;;;4981613;28;20238;-92
2023/11/19 00:20:15;;;;;;;8.63;3.57;;;14.30;99.90;;;;;;4992269;28;20175;-90
2023/11/19 00:22:43;;;;;;;10.17;3.83;;;14.30;99.90;;;;;;4980718;28;20219;-91
2023/11/19 00:25:10;;;;;;;10.03;3.63;;;14.30;99.90;;;;;;4982783;28;20183;-91
2023/11/19 00:27:46;;;;;;;10.77;3.47;;;14.30;99.90;;;;;;4998991;28;20237;-91
2023/11/19 00:30:15;;;;;;;12.10;4.03;;;14.40;99.90;;;;;;4984035;28;20281;-91
2023/11/19 00:32:41;;;;;;;8.03;3.83;;;14.20;99.90;;;;;;4982213;28;20520;-91
2023/11/19 00:35:07;;;;;;;7.30;2.87;;;14.30;99.90;;;;;;4982333;28;20209;-92
2023/11/19 00:37:34;;;;;;;7.53;3.20;;;14.40;99.90;;;;;;4979951;28;20250;-91
2023/11/19 00:39:59;;;;;;;10.67;3.70;;;14.50;99.90;;;;;;4979444;28;20670;-92
2023/11/19 00:42:25;;;;;;;9.47;3.33;;;14.40;99.90;;;;;;4979081;28;20191;-91
2023/11/19 00:44:51;;;;;;;8.00;2.80;;;14.40;99.90;;;;;;4996921;28;20194;-92
2023/11/19 00:47:20;;;;;;;9.73;3.13;;;14.40;99.90;;;;;;4978622;28;20186;-92
2023/11/19 00:49:50;;;;;;;9.67;2.97;;;14.40;99.90;;;;;;4979250;28;20190;-93
2023/11/19 00:52:18;;;;;;;10.60;3.10;;;14.40;99.90;;;;;;4977388;28;20218;-92
2023/11/19 00:54:44;;;;;;;10.37;3.50;;;14.40;99.90;;;;;;4962421;28;20600;-92
2023/11/19 00:57:13;;;;;;;13.17;4.53;;;14.40;99.90;;;;;;4998851;28;20239;-95
2023/11/19 00:59:42;;;;;;;13.57;3.70;;;14.50;99.90;;;;;;4995883;28;20172;-93
2023/11/19 01:02:14;;;;;;;9.80;3.27;;;14.50;99.90;;;;;;5017131;28;20317;-96
2023/11/19 01:04:40;;;;;;;13.27;3.30;;;14.50;99.90;;;;;;5014799;28;20199;-95
2023/11/19 01:07:12;;;;;;;10.40;3.47;;;14.60;99.90;;;;;;4994130;28;20217;-94
2023/11/19 01:09:45;;;;;;;16.17;3.67;;;14.60;99.90;;;;;;4992011;28;20181;-92
2023/11/19 01:12:12;;;;;;;11.63;3.23;;;14.60;99.90;;;;;;4993088;28;20230;-92
2023/11/19 01:14:42;;;;;;;11.03;3.27;;;14.60;99.90;;;;;;5010215;28;20175;-95
2023/11/19 01:17:09;;;;;;;12.87;3.53;;;14.60;99.90;;;;;;5011036;28;20218;-93
2023/11/19 01:19:35;;;;;;;14.40;3.23;;;14.60;99.90;;;;;;4990839;28;20191;-94
2023/11/19 01:22:21;;;;;;;11.10;3.23;;;14.60;99.90;;;;;;5016058;28;20223;-92
2023/11/19 01:24:49;;;;;;;12.50;3.60;;;14.60;99.90;;;;;;4999515;28;20190;-96
2023/11/19 01:27:15;;;;;;;10.37;3.27;;;14.70;99.90;;;;;;4992908;28;20183;-93
2023/11/19 01:29:43;;;;;;;15.20;3.83;;;14.80;99.90;;;;;;4994907;28;20194;-92
2023/11/19 01:32:10;;;;;;;11.23;3.60;;;14.70;99.90;;;;;;4998728;28;20176;-93
2023/11/19 01:34:36;;;;;;;14.90;3.23;;;14.80;99.90;;;;;;4993332;28;20198;-95
2023/11/19 01:37:01;;;;;;;13.63;3.47;;;14.70;99.90;;;;;;4974312;28;20227;-94
2023/11/19 01:39:27;;;;;;;11.23;3.70;;;14.60;99.90;;;;;;4989400;28;20189;-93
2023/11/19 01:41:54;;;;;;;11.50;3.43;;;14.50;99.90;;;;;;4988904;28;20672;-94
2023/11/19 01:44:23;;;;;;;10.73;3.23;;;14.40;99.90;;;;;;5013957;28;20203;-92
2023/11/19 01:46:52;;;;;;;8.73;2.70;;;14.40;99.90;;;;;;4992394;28;20194;-95
2023/11/19 01:49:20;;;;;;;11.97;3.43;;;14.50;99.90;;;;;;4990590;28;20231;-95
2023/11/19 01:51:48;;;;;;;13.57;3.83;;;14.50;99.90;;;;;;5008133;28;20202;-92
2023/11/19 01:54:15;;;;;;;12.50;4.33;;;14.40;99.90;;;;;;4992271;28;20210;-95
2023/11/19 01:56:44;;;;;;;13.23;3.53;;;14.50;99.90;;;;;;4992899;28;20204;-90
2023/11/19 01:59:13;;;;;;;12.97;3.83;;;14.60;99.90;;;;;;4980808;28;20247;-93
2023/11/19 02:01:40;;;;;;;15.53;4.00;;;14.60;99.90;;;;;;5000209;28;20163;-92
2023/11/19 02:04:09;;;;;;;12.63;4.00;;;14.60;99.90;;;;;;4984901;28;20182;-93
2023/11/19 02:06:45;;;;;;;18.30;4.37;;;14.70;99.90;;;;;;4965104;28;20183;-92
2023/11/19 02:09:13;;;;;;;13.57;3.13;;;14.50;99.90;;;;;;4995319;28;20175;-94
2023/11/19 02:11:57;;;;;;;15.50;4.10;;;14.50;99.90;;;;;;5007271;28;20246;-92
2023/11/19 02:14:28;;;;;;;21.40;4.30;;;14.50;99.90;;;;;;4991410;28;20211;-93
2023/11/19 02:16:55;;;;;;;16.27;4.17;;;14.50;99.90;;;;;;4984823;28;20223;-93
2023/11/19 02:19:25;;;;;;;13.77;3.60;;;14.40;99.90;;;;;;5010068;28;20171;-93
2023/11/19 02:21:52;;;;;;;15.67;4.67;;;14.50;99.90;;;;;;4995403;28;20205;-93
2023/11/19 02:24:21;;;;;;;15.20;4.30;;;14.50;99.90;;;;;;4970914;28;20206;-92
2023/11/19 02:27:24;;;;;;;18.00;5.13;;;14.40;99.90;;;;;;4980056;28;20190;-92
2023/11/19 02:29:50;;;;;;;18.93;4.57;;;14.30;99.90;;;;;;4979054;28;20187;-92
2023/11/19 02:32:16;;;;;;;14.23;4.20;;;14.40;99.90;;;;;;4980292;28;20189;-92
2023/11/19 02:34:42;;;;;;;20.50;5.60;;;14.40;99.90;;;;;;4964164;28;20187;-91
2023/11/19 02:37:08;;;;;;;15.83;4.13;;;14.30;99.90;;;;;;4983694;28;20270;-91
2023/11/19 02:39:34;;;;;;;18.03;4.33;;;14.20;99.90;;;;;;5001551;28;20221;-92
2023/11/19 02:41:59;;;;;;;15.20;4.10;;;14.30;99.90;;;;;;4999842;28;20182;-92
2023/11/19 02:44:29;;;;;;;10.33;3.90;;;14.30;99.90;;;;;;4982507;28;20218;-92
2023/11/19 02:46:56;;;;;;;14.67;3.80;;;14.40;99.90;;;;;;4982256;28;20179;-93
2023/11/19 02:49:22;;;;;;;16.27;3.87;;;14.40;99.90;;;;;;4981490;28;20183;-92
2023/11/19 02:51:47;;;;;;;16.63;5.13;;;14.40;99.90;;;;;;4981900;28;20187;-92
2023/11/19 02:54:14;;;;;;;16.13;3.90;;;14.40;99.90;;;;;;4981988;28;20663;-92
2023/11/19 02:56:42;;;;;;;19.03;4.57;;;14.40;99.90;;;;;;4984267;28;20285;-92
2023/11/19 02:59:11;;;;;;;19.37;4.70;;;14.40;99.90;;;;;;4999445;28;20180;-92
2023/11/19 03:01:37;;;;;;;14.30;4.47;;;14.40;99.90;;;;;;4992022;28;20182;-93
2023/11/19 03:04:05;;;;;;;12.73;3.50;;;14.40;99.90;;;;;;5005321;28;20183;-92
2023/11/19 03:06:30;;;;;;;13.67;3.80;;;14.20;99.90;;;;;;4989989;28;20179;-92
2023/11/19 03:08:56;;;;;;;15.87;3.60;;;14.30;99.90;;;;;;5001526;28;20735;-91
2023/11/19 03:11:24;;;;;;;18.63;4.33;;;14.10;99.90;;;;;;4998715;28;20285;-91
2023/11/19 03:13:50;;;;;;;15.20;3.90;;;14.10;99.90;;;;;;4982623;28;20178;-92
2023/11/19 03:16:16;;;;;;;16.57;3.97;;;14.00;99.90;;;;;;4981380;28;20261;-92
2023/11/19 03:18:42;;;;;;;15.20;4.13;;;14.00;99.90;;;;;;4981238;28;20226;-92
2023/11/19 03:21:09;;;;;;;16.93;4.17;;;13.90;99.90;;;;;;4981500;28;20623;-92
2023/11/19 03:23:35;;;;;;;16.90;3.87;;;13.80;99.90;;;;;;4981072;28;20179;-93
2023/11/19 03:26:04;;;;;;;18.23;3.87;;;13.80;99.90;;;;;;4980797;28;20178;-93
2023/11/19 03:28:30;;;;;;;13.07;3.80;;;13.80;99.90;;;;;;4979763;28;20707;-93
2023/11/19 03:30:56;;;;;;;17.53;4.53;;;13.80;99.90;;;;;;4981478;28;20204;-92
2023/11/19 03:33:23;;;;;;;15.63;3.43;;;13.80;99.90;;;;;;4986729;28;20628;-91
2023/11/19 03:35:49;;;;;;;16.63;4.00;;;13.80;99.90;;;;;;4967847;28;20187;-93
2023/11/19 03:38:14;;;;;;;19.00;4.97;;;13.90;99.90;;;;;;4986392;28;20309;-92
2023/11/19 03:40:40;;;;;;;17.20;4.50;;;13.80;99.90;;;;;;4990563;28;20245;-90
2023/11/19 03:43:06;;;;;;;18.13;3.77;;;13.80;99.90;;;;;;4990744;28;20201;-93
2023/11/19 03:45:31;;;;;;;14.93;4.13;;;13.80;99.90;;;;;;5004320;28;20190;-92
2023/11/19 03:47:58;;;;;;;14.93;4.20;;;13.70;99.90;;;;;;4980297;28;20543;-93
2023/11/19 03:50:24;;;;;;;14.17;3.63;;;13.60;99.90;;;;;;4981020;28;20643;-92
2023/11/19 03:52:50;;;;;;;15.57;3.77;;;13.60;99.90;;;;;;4980691;28;20210;-92
2023/11/19 03:55:16;;;;;;;17.47;4.27;;;13.60;99.90;;;;;;4998322;28;20182;-91
2023/11/19 03:57:42;;;;;;;18.83;4.03;;;13.70;99.90;;;;;;4980150;28;20231;-92
2023/11/19 04:00:13;;;;;;;17.67;3.90;;;13.60;99.90;;;;;;4977530;28;20183;-92
2023/11/19 04:02:39;;;;;;;17.67;4.03;;;13.60;99.90;;;;;;5000320;28;20180;-93
2023/11/19 04:05:06;;;;;;;20.53;4.80;;;13.60;99.90;;;;;;5001573;28;20197;-91
2023/11/19 04:07:32;;;;;;;16.17;4.50;;;13.60;99.90;;;;;;4986185;28;20198;-91
2023/11/19 04:09:58;;;;;;;20.80;4.63;;;13.70;99.90;;;;;;5004837;28;20209;-93
2023/11/19 04:12:27;;;;;;;15.33;4.10;;;13.60;99.90;;;;;;5005570;28;20197;-92
2023/11/19 04:14:53;;;;;;;16.60;4.57;;;13.50;99.90;;;;;;5004673;28;20192;-92
2023/11/19 04:17:21;;;;;;;17.63;4.70;;;13.50;99.90;;;;;;5004658;28;20226;-92
2023/11/19 04:19:46;;;;;;;20.10;4.70;;;13.40;99.90;;;;;;5019714;28;20237;-92
2023/11/19 04:22:12;;;;;;;18.77;4.33;;;13.60;99.90;;;;;;5000632;28;20237;-92
2023/11/19 04:24:40;;;;;;;20.33;4.40;;;13.50;99.90;;;;;;4999952;28;20193;-91
2023/11/19 04:27:06;;;;;;;18.60;4.77;;;13.40;99.90;;;;;;5020677;28;20174;-93
2023/11/19 04:29:32;;;;;;;19.57;4.80;;;13.40;99.90;;;;;;5009684;28;20175;-92
2023/11/19 04:32:01;;;;;;;16.93;4.53;;;13.40;99.90;;;;;;5022359;28;20186;-94
2023/11/19 04:34:27;;;;;;;23.40;4.80;;;13.50;99.90;;;;;;5003800;28;20552;-91
2023/11/19 04:36:52;;;;;;;21.60;5.27;;;13.50;99.90;;;;;;5005771;28;20206;-93
2023/11/19 04:39:18;;;;;;;23.57;5.27;;;13.60;99.90;;;;;;5003342;28;20191;-92
2023/11/19 04:41:57;;;;;;;19.23;4.77;;;13.50;99.90;;;;;;5027343;28;20310;-95
2023/11/19 04:44:27;;;;;;;19.73;5.37;;;13.50;99.90;;;;;;5019081;28;20213;-94
2023/11/19 04:46:55;;;;;;;25.40;5.33;;;13.50;99.90;;;;;;5038632;28;20174;-95
2023/11/19 04:49:21;;;;;;;19.37;5.07;;;13.60;99.90;;;;;;5021229;28;20211;-93
2023/11/19 04:52:08;;;;;;;23.37;4.97;;;13.50;99.90;;;;;;5035881;28;20185;-92
2023/11/19 04:54:43;;;;;;;20.57;5.73;;;13.60;99.90;;;;;;5020584;28;20185;-92
2023/11/19 04:57:40;;;;;;;26.33;5.77;;;13.50;99.90;;;;;;5017062;28;20213;-92
2023/11/19 05:00:10;;;;;;;16.27;4.50;;;13.50;99.90;;;;;;5013818;28;20249;-92
2023/11/19 05:02:38;;;;;;;18.70;5.00;;;13.50;99.90;;;;;;5030175;28;20354;-92
2023/11/19 05:05:27;;;;;;;24.47;5.97;;;13.50;99.90;;;;;;4998711;28;20202;-91
2023/11/19 05:07:55;;;;;;;20.80;5.37;;;13.50;99.90;;;;;;5035386;28;20181;-92
2023/11/19 05:10:24;;;;;;;24.47;5.70;;;13.50;99.90;;;;;;5012901;28;20213;-94
2023/11/19 05:13:19;;;;;;;21.47;5.50;;;13.40;99.90;;;;;;5014820;28;20337;-91
2023/11/19 05:15:50;;;;;;;18.90;4.83;;;13.30;99.90;;;;;;5027872;28;20188;-95
2023/11/19 05:18:23;;;;;;;21.37;6.57;;;13.30;99.90;;;;;;5012463;28;20309;-93
2023/11/19 05:20:49;;;;;;;19.53;5.37;;;13.30;99.90;;;;;;5012046;28;20210;-92
2023/11/19 05:23:15;;;;;;;21.13;5.23;;;13.40;99.90;;;;;;5013534;28;20236;-96
2023/11/19 05:25:47;;;;;;;19.43;5.20;;;13.40;99.90;;;;;;5016191;28;20193;-92
2023/11/19 05:28:14;;;;;;;27.10;5.90;;;13.20;99.90;;;;;;4990878;28;20209;-93
2023/11/19 05:30:40;;;;;;;24.57;5.43;;;13.20;99.90;;;;;;4980705;28;20203;-92
2023/11/19 05:33:07;;;;;;;28.10;5.70;;;13.10;99.90;;;;;;4989746;28;20190;-91
2023/11/19 05:35:34;;;;;;;27.37;5.23;;;13.10;99.90;;;;;;4992793;28;20193;-92
2023/11/19 05:38:00;;;;;;;23.60;5.50;;;13.30;99.90;;;;;;4972514;28;20762;-91
2023/11/19 05:40:27;;;;;;;23.27;5.50;;;13.30;99.90;;;;;;5002914;28;20186;-92
2023/11/19 05:42:56;;;;;;;29.23;5.93;;;13.20;99.90;;;;;;4996969;28;20202;-94
2023/11/19 05:45:22;;;;;;;26.53;5.90;;;13.30;99.90;;;;;;4998133;28;20238;-91
2023/11/19 05:47:52;;;;;;;23.80;5.30;;;13.30;99.90;;;;;;5004706;28;20183;-92
2023/11/19 05:50:18;;;;;;;24.63;5.57;;;13.30;99.90;;;;;;5005474;28;20183;-91
2023/11/19 05:52:44;;;;;;;24.90;6.53;;;13.30;99.90;;;;;;4999881;28;20247;-91
2023/11/19 05:55:10;;;;;;;26.47;6.90;;;13.30;99.90;;;;;;4989074;28;20205;-92
2023/11/19 05:57:37;;;;;;;34.90;6.60;;;13.20;99.90;;;;;;4983460;28;20305;-93
2023/11/19 06:00:06;;;;;;;25.17;5.60;;;13.20;99.90;;;;;;4984769;28;20194;-91
2023/11/19 06:02:37;;;;;;;25.87;6.20;;;13.20;99.90;;;;;;4998079;28;20186;-92
2023/11/19 06:05:05;;;;;;;24.10;6.00;;;13.10;99.90;;;;;;5025442;28;20174;-93
2023/11/19 06:07:33;;;;;;;22.47;5.87;;;13.10;99.90;;;;;;5007975;28;20218;-93
2023/11/19 06:09:59;;;;;;;29.93;5.70;;;13.30;99.90;;;;;;5030576;28;20197;-92
2023/11/19 06:12:27;;;;;;;24.30;6.10;;;13.20;99.90;;;;;;5016490;28;20213;-93
2023/11/19 06:14:53;;;;;;;25.83;5.50;;;13.10;99.90;;;;;;5010954;28;20178;-92
2023/11/19 06:17:20;;;;;;;21.53;5.23;;;12.90;99.90;;;;;;5012604;28;20256;-94
2023/11/19 06:19:45;;;;;;;27.27;6.13;;;12.90;99.90;;;;;;5012256;28;20273;-96
2023/11/19 06:22:11;;;;;;;24.60;6.30;;;12.90;99.90;;;;;;5010922;28;20225;-93
2023/11/19 06:24:42;;;;;;;24.07;6.00;;;12.90;99.90;;;;;;5012119;28;20231;-91
2023/11/19 06:27:08;;;;;;;24.17;6.47;;;12.90;99.90;;;;;;5020712;28;20253;-93
2023/11/19 06:29:34;;;;;;;24.17;6.17;;;12.70;99.90;;;;;;5008197;28;20209;-92
2023/11/19 06:32:00;;;;;;;23.10;5.83;;;12.70;99.90;;;;;;5007224;28;20186;-91
2023/11/19 06:34:26;;;;;;;25.67;5.73;;;12.60;99.90;;;;;;4993290;28;20190;-91
2023/11/19 06:36:52;;;;;;;21.93;5.60;;;12.70;99.90;;;;;;5010225;28;20205;-95
2023/11/19 06:39:18;;;;;;;32.97;6.23;;;12.70;99.90;;;;;;5012230;28;20229;-95
2023/11/19 06:41:47;;;;;;;26.70;6.10;;;12.60;99.90;;;;;;5009110;28;20182;-92
2023/11/19 06:44:13;;;;;;;27.97;6.03;;;12.60;99.90;;;;;;5026383;28;20198;-96
2023/11/19 06:46:40;;;;;;;21.23;5.80;;;12.50;99.90;;;;;;5007089;28;20183;-93
2023/11/19 06:49:09;;;;;;;24.83;4.70;;;12.50;99.90;;;;;;5001613;28;20184;-91
2023/11/19 06:51:35;;;;;;;21.67;5.63;;;12.50;99.90;;;;;;4999320;28;20213;-94
2023/11/19 06:54:02;;;;;;;24.70;6.10;;;12.40;99.90;;;;;;5007792;28;20188;-93
2023/11/19 06:56:29;;;;;;;21.03;5.03;;;12.30;99.90;;;;;;5003539;28;20205;-92
2023/11/19 06:58:55;;;;;;;27.97;6.70;;;12.40;99.90;;;;;;5013794;28;20178;-95
2023/11/19 07:01:21;;;;;;;21.13;5.07;;;12.50;99.90;;;;;;5012030;28;20263;-92
2023/11/19 07:03:47;;;;;;;25.93;5.77;;;12.40;99.90;;;;;;5014638;28;20190;-96
2023/11/19 07:06:13;;;;;;;22.87;5.83;;;12.40;99.90;;;;;;5031263;28;20174;-96
2023/11/19 07:08:41;;;;;;;30.63;6.93;;;12.40;99.90;;;;;;5008488;28;20626;-96
2023/11/19 07:11:10;;;;;;;25.73;6.13;;;12.30;99.90;;;;;;5011478;28;20226;-93
2023/11/19 07:13:36;;;;;;;22.10;5.70;;;12.40;99.90;;;;;;5018804;28;20204;-92
2023/11/19 07:16:04;;;;;;;27.57;6.13;;;12.40;99.90;;;;;;5009316;28;20265;-92
2023/11/19 07:18:31;;;;;;;25.80;5.90;;;12.50;99.90;;;;;;5000054;28;20198;-92
2023/11/19 07:20:59;;;;;;;19.37;5.43;;;12.50;99.90;;;;;;4999946;28;20208;-93
2023/11/19 07:23:26;;;;;;;23.57;5.97;;;12.40;99.90;;;;;;5003246;28;20193;-92
2023/11/19 07:25:53;;;;;;;27.80;5.63;;;12.40;99.90;;;;;;5001218;28;20195;-92
2023/11/19 07:28:19;;;;;;;21.67;5.80;;;12.40;99.90;;;;;;4999321;28;20223;-92
2023/11/19 07:30:45;;;;;;;23.97;5.70;;;12.40;99.90;;;;;;5018045;28;20627;-92
2023/11/19 07:33:13;;;;;;;28.53;6.00;;;12.40;99.90;;;;;;5012480;28;20673;-94
2023/11/19 07:35:44;;;;;;;21.90;5.57;;;12.40;99.90;;;;;;5014070;28;20187;-95
2023/11/19 07:38:10;;;;;;;24.77;6.07;;;12.30;99.90;;;;;;5013196;28;20226;-94
2023/11/19 07:40:36;;;;;;;18.90;5.27;;;12.40;99.90;;;;;;5010675;28;20201;-93
2023/11/19 07:43:02;;;;;;;23.00;5.30;;;12.50;99.90;;;;;;5003636;28;20206;-96
2023/11/19 07:45:31;;;;;;;24.77;5.60;;;12.40;99.90;;;;;;5012381;28;20199;-95
2023/11/19 07:48:24;;;;;;;26.83;6.70;;;12.50;99.90;;;;;;5031869;28;20182;-94
2023/11/19 07:50:50;;;;;;;30.17;6.77;;;12.40;99.90;;;;;;5014476;28;20178;-93
2023/11/19 07:53:22;;;;;;;18.27;5.70;;;12.50;99.90;;;;;;5009451;28;20277;-92
2023/11/19 07:55:47;;;;;;;27.20;5.83;;;12.40;99.90;;;;;;5004266;28;20241;-93
2023/11/19 07:58:13;;;;;;;21.80;6.37;;;12.40;99.90;;;;;;5000085;28;20229;-92
2023/11/19 08:00:40;;;;;;;23.17;6.33;;;12.50;99.90;;;;;;5000099;28;20244;-92
2023/11/19 08:03:06;;;;;;;21.47;5.53;;;12.50;99.90;;;;;;4999512;28;20717;-91
2023/11/19 08:05:32;;;;;;;22.13;5.93;;;12.50;99.90;;;;;;4999735;28;20190;-91
2023/11/19 08:07:58;;;;;;;23.83;5.93;;;12.50;99.90;;;;;;5017619;28;20183;-93
2023/11/19 08:10:29;;;;;;;20.87;5.47;;;12.50;99.90;;;;;;5002640;28;20178;-93
2023/11/19 08:12:55;;;;;;;26.27;6.70;;;12.60;99.90;;;;;;5011145;28;20194;-93
2023/11/19 08:15:24;;;;;;;21.33;5.13;;;12.70;99.90;;;;;;5022214;28;20193;-94
2023/11/19 08:17:53;;;;;;;25.63;4.97;;;12.70;99.90;;;;;;4999429;28;20219;-93
2023/11/19 08:20:29;;;;;;;21.53;5.73;;;12.70;99.90;;;;;;5008450;28;20607;-93
2023/11/19 08:22:57;;;;;;;26.30;6.23;;;12.70;99.90;;;;;;5000278;28;20189;-92
2023/11/19 08:25:33;;;;;;;24.70;5.37;;;12.70;99.90;;;;;;5006963;28;20185;-94
2023/11/19 08:28:25;;;;;;;22.53;4.60;;;12.70;99.90;;;;;;5028707;28;20230;-89
2023/11/19 08:31:12;;;;;;;24.03;5.63;;;12.80;99.90;;;;;;5014585;28;20218;-92
2023/11/19 08:33:38;;;;;;;24.23;5.73;;;12.90;99.90;;;;;;5010654;28;20196;-92
2023/11/19 08:36:10;;;;;;;24.23;5.40;;;12.90;99.90;;;;;;5018953;28;20206;-92
2023/11/19 08:38:51;;;;;;;22.43;5.33;;;13.00;99.90;;;;;;5024791;28;20202;-93
2023/11/19 08:41:39;;;;;;;20.07;4.77;;;13.00;99.90;;;;;;5024710;28;20185;-95
2023/11/19 08:44:05;;;;;;;20.30;5.20;;;13.10;99.90;;;;;;5011359;28;20212;-92
2023/11/19 08:46:31;;;;;;;20.70;5.40;;;12.80;99.90;;;;;;5038029;28;20186;-92
2023/11/19 08:48:58;;;;;;;23.23;5.87;;;12.70;99.90;;;;;;5027204;28;20189;-91
2023/11/19 08:51:25;;;;;;;20.70;5.83;;;12.70;99.90;;;;;;5001574;28;20195;-93
2023/11/19 08:53:51;;;;;;;19.27;5.30;;;12.80;99.90;;;;;;5014672;28;20190;-93
2023/11/19 08:56:18;;;;;;;21.03;5.17;;;12.70;99.90;;;;;;5008816;28;20182;-94
2023/11/19 08:58:44;;;;;;;20.10;4.40;;;12.90;99.90;;;;;;5002105;28;20186;-92
2023/11/19 09:01:11;;;;;;;20.57;5.47;;;13.00;99.90;;;;;;5001712;28;20174;-92
2023/11/19 09:03:37;;;;;;;21.27;5.70;;;12.90;99.90;;;;;;5004537;28;20203;-91
2023/11/19 09:06:02;;;;;;;22.20;5.30;;;13.00;99.90;;;;;;5004210;28;20189;-90
2023/11/19 09:08:29;;;;;;;21.00;5.47;;;13.00;99.90;;;;;;5010992;28;20181;-91
2023/11/19 09:10:55;;;;;;;23.83;5.53;;;13.00;99.90;;;;;;5012659;28;20198;-91
2023/11/19 09:13:24;;;;;;;21.77;4.63;;;13.00;99.90;;;;;;5010134;28;20192;-91
2023/11/19 09:16:03;;;;;;;16.80;4.80;;;13.20;99.90;;;;;;5032473;28;20186;-92
2023/11/19 09:18:42;;;;;;;18.13;4.97;;;13.40;99.90;;;;;;5030046;28;20199;-92
2023/11/19 09:21:11;;;;;;;21.90;4.93;;;13.30;99.90;;;;;;4992815;28;20281;-89
2023/11/19 09:23:54;;;;;;;18.83;4.83;;;13.40;99.90;;;;;;5003136;28;20193;-89
2023/11/19 09:26:19;;;;;;;18.70;4.53;;;13.40;99.90;;;;;;4994700;28;20185;-89
2023/11/19 09:28:45;;;;;;;17.80;4.57;;;13.30;99.90;;;;;;5005868;28;20264;-88
2023/11/19 09:31:18;;;;;;;15.70;4.50;;;13.30;99.90;;;;;;5027491;28;20182;-87
2023/11/19 09:33:45;;;;;;;19.43;4.50;;;13.30;99.90;;;;;;5008325;28;20191;-87
2023/11/19 09:36:14;;;;;;;16.83;4.93;;;13.40;99.90;;;;;;5009718;28;20184;-88
2023/11/19 09:38:41;;;;;;;21.43;4.73;;;13.30;99.90;;;;;;5000497;28;20190;-89
2023/11/19 09:41:09;;;;;;;19.53;4.27;;;13.30;99.90;;;;;;4986170;28;20187;-88
2023/11/19 09:43:38;;;;;;;20.47;4.67;;;13.40;99.90;;;;;;5027872;28;20205;-90
2023/11/19 09:46:11;;;;;;;21.33;4.60;;;13.50;99.90;;;;;;5016383;28;20193;-91
2023/11/19 09:48:38;;;;;;;14.30;4.53;;;13.60;99.90;;;;;;5015810;28;20200;-90
2023/11/19 09:51:10;;;;;;;17.43;3.87;;;13.60;99.90;;;;;;5017461;28;20182;-89
2023/11/19 09:53:38;;;;;;;19.83;5.07;;;13.50;99.90;;;;;;5014209;28;20207;-89
2023/11/19 09:56:05;;;;;;;18.93;4.97;;;13.60;99.90;;;;;;5006378;28;20182;-89
2023/11/19 09:58:32;;;;;;;22.17;5.60;;;13.60;99.90;;;;;;4989728;28;20306;-90
2023/11/19 10:01:10;;;;;;;21.40;5.00;;;13.70;99.90;;;;;;4993878;28;20187;-90
2023/11/19 10:03:39;;;;;;;17.00;4.50;;;13.70;99.90;;;;;;5010262;28;20194;-91
2023/11/19 10:06:09;;;;;;;22.03;5.50;;;13.80;99.90;;;;;;5009671;28;20186;-91
2023/11/19 10:08:39;;;;;;;21.97;4.97;;;13.80;99.90;;;;;;5000814;28;20183;-89
2023/11/19 10:11:19;;;;;;;19.07;5.30;;;14.00;99.90;;;;;;4998529;28;20282;-89
2023/11/19 10:13:48;;;;;;;20.27;5.40;;;13.80;99.90;;;;;;5009363;28;20183;-88
2023/11/19 10:16:14;;;;;;;22.80;5.07;;;13.80;99.90;;;;;;5007584;28;20175;-87
2023/11/19 10:18:52;;;;;;;21.23;4.97;;;13.70;99.90;;;;;;5011520;28;20190;-88
2023/11/19 10:21:22;;;;;;;18.83;4.63;;;13.80;99.90;;;;;;5007911;28;20211;-85
2023/11/19 10:23:59;;;;;;;18.03;5.00;;;13.80;99.90;;;;;;5009977;28;20185;-87
2023/11/19 10:26:43;;;;;;;21.00;4.53;;;13.80;99.90;;;;;;5032078;28;20246;-87
2023/11/19 10:29:14;;;;;;;18.57;4.60;;;13.80;99.90;;;;;;5016118;28;20178;-90
2023/11/19 10:31:40;;;;;;;16.17;4.87;;;13.90;99.90;;;;;;5003351;28;20192;-88
2023/11/19 10:34:25;;;;;;;17.27;4.77;;;14.00;99.90;;;;;;5020292;28;20212;-87
2023/11/19 10:36:50;;;;;;;19.43;4.70;;;14.00;99.90;;;;;;5005419;28;20234;-89
2023/11/19 10:39:16;;;;;;;18.23;4.80;;;13.90;99.90;;;;;;5001946;28;20166;-88
2023/11/19 10:41:42;;;;;;;18.37;4.63;;;14.00;99.90;;;;;;5000460;28;20618;-86
2023/11/19 10:44:09;;;;;;;18.00;4.33;;;14.10;99.90;;;;;;5004907;28;20226;-92
2023/11/19 10:46:43;;;;;;;21.33;4.73;;;13.90;99.90;;;;;;5003692;28;20186;-85
2023/11/19 10:49:10;;;;;;;14.30;3.90;;;13.90;99.90;;;;;;5007627;28;20270;-87
2023/11/19 10:51:46;;;;;;;14.23;4.40;;;14.00;99.90;;;;;;5008959;28;20193;-91
2023/11/19 10:54:15;;;;;;;14.83;4.43;;;13.90;99.90;;;;;;4995920;28;20174;-88
2023/11/19 10:56:44;;;;;;;16.83;4.00;;;13.90;99.90;;;;;;5014874;28;20270;-86
2023/11/19 10:59:13;;;;;;;13.23;3.83;;;14.10;99.90;;;;;;4988314;28;20257;-87
2023/11/19 11:01:45;;;;;;;14.30;3.83;;;14.10;99.90;;;;;;5019099;28;20174;-89
2023/11/19 11:04:15;;;;;;;16.60;4.50;;;14.10;99.90;;;;;;4995649;28;20191;-85
2023/11/19 11:06:41;;;;;;;15.83;4.37;;;14.20;99.90;;;;;;5005682;28;20209;-87
2023/11/19 11:09:11;;;;;;;18.97;4.73;;;14.30;99.90;;;;;;5004163;28;20658;-86
2023/11/19 11:11:44;;;;;;;20.97;5.13;;;14.30;99.90;;;;;;5002559;28;20288;-90
2023/11/19 11:14:16;;;;;;;20.03;5.20;;;14.30;99.90;;;;;;4998774;28;20191;-89
2023/11/19 11:16:48;;;;;;;23.20;5.30;;;14.20;99.90;;;;;;4991494;28;20210;-92
2023/11/19 11:19:16;;;;;;;16.03;4.17;;;14.10;99.90;;;;;;5000941;28;20192;-90
2023/11/19 11:21:51;;;;;;;20.20;4.23;;;14.00;99.90;;;;;;4986115;28;20213;-88
2023/11/19 11:24:59;;;;;;;25.17;5.30;;;13.90;99.90;;;;;;4997745;28;20185;-89
2023/11/19 11:27:50;;;;;;;21.90;5.13;;;13.70;99.90;;;;;;4982781;28;20688;-88
2023/11/19 11:30:54;;;;;;;20.60;5.20;;;13.70;99.90;;;;;;4990713;28;20180;-87
2023/11/19 11:33:41;;;;;;;19.03;5.63;;;13.60;99.90;;;;;;4938064;29;20262;-90
2023/11/19 11:36:14;;;;;;;25.97;5.60;;;13.60;99.90;;;;;;4947098;28;20193;-91
2023/11/19 11:38:48;;;;;;;19.10;4.73;;;13.50;99.90;;;;;;4984937;28;20189;-90
2023/11/19 11:41:24;;;;;;;25.80;5.23;;;13.60;99.90;;;;;;4985117;28;20193;-89
2023/11/19 11:43:58;;;;;;;23.17;5.70;;;13.80;99.90;;;;;;5002916;28;20259;-91
2023/11/19 11:46:33;;;;;;;17.57;5.53;;;13.90;99.90;;;;;;5002949;28;20557;-89
2023/11/19 11:49:03;;;;;;;16.33;4.40;;;14.10;99.90;;;;;;5002535;28;20179;-88
2023/11/19 11:51:45;;;;;;;19.20;5.13;;;14.20;99.90;;;;;;5004455;28;20202;-89
2023/11/19 11:54:27;;;;;;;22.13;5.37;;;14.40;99.90;;;;;;5003265;28;20288;-91
2023/11/19 11:57:11;;;;;;;16.90;4.07;;;14.60;99.90;;;;;;4987086;28;20218;-88
2023/11/19 11:59:49;;;;;;;16.87;4.60;;;14.80;99.90;;;;;;4985827;28;20273;-89
2023/11/19 12:02:18;;;;;;;16.83;4.90;;;14.80;99.90;;;;;;4994374;28;20214;-91
2023/11/19 12:04:48;;;;;;;14.97;3.60;;;14.90;99.90;;;;;;5007156;28;20186;-89
2023/11/19 12:07:18;;;;;;;15.03;3.87;;;14.80;99.90;;;;;;5003138;28;20185;-88
2023/11/19 12:09:49;;;;;;;16.63;4.03;;;14.60;99.90;;;;;;5005503;28;20244;-88
2023/11/19 12:12:14;;;;;;;17.03;3.63;;;14.60;99.90;;;;;;4997941;28;20252;-86
2023/11/19 12:15:14;;;;;;;15.97;4.23;;;14.50;99.90;;;;;;5003128;28;20683;-90
2023/11/19 12:17:50;;;;;;;16.47;3.73;;;14.40;99.90;;;;;;4943343;28;20791;-90
2023/11/19 12:20:31;;;;;;;;;;;;;;;;;;;;;
2023/11/19 12:23:12;;;;;;;11.97;3.83;;;14.20;99.90;;;;;;4986403;28;20227;-90
2023/11/19 12:25:39;;;;;;;10.53;3.13;;;14.10;99.90;;;;;;4998621;28;20196;-88
2023/11/19 12:28:11;;;;;;;13.60;4.63;;;14.00;99.90;;;;;;5001123;28;20175;-89
2023/11/19 12:30:37;;;;;;;13.33;4.20;;;13.80;99.90;;;;;;4983650;28;20184;-89
2023/11/19 12:33:09;;;;;;;16.23;4.07;;;13.80;99.90;;;;;;5001881;28;20265;-89
2023/11/19 12:35:39;;;;;;;18.87;4.73;;;13.80;99.90;;;;;;4993392;28;20216;-89
2023/11/19 12:38:05;;;;;;;17.40;4.27;;;13.70;99.90;;;;;;5012551;28;20206;-88
2023/11/19 12:40:32;;;;;;;17.90;4.50;;;13.70;99.90;;;;;;5000300;28;20194;-89
2023/11/19 12:42:58;;;;;;;16.83;4.50;;;13.70;99.90;;;;;;5007898;28;20205;-89
2023/11/19 12:45:24;;;;;;;18.20;5.33;;;13.70;99.90;;;;;;5005420;28;20249;-88
2023/11/19 12:48:03;;;;;;;18.17;5.00;;;13.70;99.90;;;;;;5002987;28;20188;-88
2023/11/19 12:50:29;;;;;;;18.67;5.37;;;13.80;99.90;;;;;;4995268;28;20571;-90